Terminal Aerodrome Forecast
Issued by NWS Sioux Falls, SD

Home | Current Version | Previous Version | Text Only | Print | Product List | Glossary Off
Versions: 1 2 3 4 5 6 7 8 9 10 11 12

123
FTUS43 KFSD 292325
TAFFSD
TAF
KFSD 292325Z 3000/3024 05020G28KT P6SM OVC120
     FM300300 05013KT P6SM OVC070
     FM301100 04016G24KT P6SM VCSH OVC040
     FM301400 04020G28KT P6SM RA OVC030
     FM301700 03021G29KT 5SM RA OVC015
     FM302300 03022G31KT 2SM RA OVC010=

USA.gov is the U.S. government's official web portal to all federal, state and local government web resources and services.